Time;durP1;ratioP1;P1;durP2;ratioP2;P2;SDS_P1;SDS_P2;PMS_P1;PMS_P2;Temp;Humidity;BMP_temperature;BMP_pressure;BME280_temperature;BME280_humidity;BME280_pressure;Samples;Min_cycle;Max_cycle;Signal;HPM_P1;HPM_P2
2022/12/14 00:00:53;;;;;;;20.73;12.43;;;-2.80;99.90;;;;;;5005921;28;20042;-75
2022/12/14 00:03:18;;;;;;;26.77;14.40;;;-2.80;99.90;;;;;;5005349;28;20694;-76
2022/12/14 00:05:44;;;;;;;27.50;12.67;;;-2.80;99.90;;;;;;5005903;28;20049;-74
2022/12/14 00:08:11;;;;;;;20.37;11.90;;;-2.90;99.90;;;;;;5005530;28;20073;-74
2022/12/14 00:10:38;;;;;;;16.40;11.37;;;-2.90;99.90;;;;;;5006066;28;20133;-74
2022/12/14 00:13:05;;;;;;;19.00;13.57;;;-2.90;99.90;;;;;;5003562;28;20050;-74
2022/12/14 00:15:31;;;;;;;21.07;14.20;;;-2.90;99.90;;;;;;5005954;28;20095;-75
2022/12/14 00:17:58;;;;;;;44.20;14.43;;;-2.90;99.90;;;;;;5005638;28;20046;-76
2022/12/14 00:20:24;;;;;;;23.20;13.80;;;-2.90;99.90;;;;;;5006104;28;20073;-76
2022/12/14 00:22:49;;;;;;;22.40;13.27;;;-2.90;99.90;;;;;;5005689;28;20588;-75
2022/12/14 00:25:15;;;;;;;17.97;11.07;;;-2.90;99.90;;;;;;5006149;28;20041;-74
2022/12/14 00:27:43;;;;;;;16.73;12.33;;;-3.00;99.90;;;;;;5004456;28;20056;-75
2022/12/14 00:30:10;;;;;;;22.67;13.10;;;-3.00;99.90;;;;;;5005133;28;20048;-74
2022/12/14 00:32:35;;;;;;;21.17;12.17;;;-3.00;99.90;;;;;;4987821;28;20077;-75
2022/12/14 00:35:01;;;;;;;22.63;13.00;;;-3.00;99.90;;;;;;5005219;28;20630;-76
2022/12/14 00:37:27;;;;;;;11.73;9.60;;;-3.10;99.90;;;;;;5005737;28;20037;-75
2022/12/14 00:39:52;;;;;;;19.50;12.37;;;-3.10;99.90;;;;;;5005825;28;20716;-77
2022/12/14 00:42:18;;;;;;;23.67;13.00;;;-3.10;99.90;;;;;;4987592;28;20064;-75
2022/12/14 00:44:43;;;;;;;17.00;10.40;;;-3.20;99.90;;;;;;5005485;28;20046;-74
2022/12/14 00:47:09;;;;;;;13.47;11.17;;;-3.20;99.90;;;;;;5004769;28;20064;-74
2022/12/14 00:49:35;;;;;;;21.00;11.20;;;-3.10;99.90;;;;;;5005330;28;20049;-74
2022/12/14 00:52:00;;;;;;;17.33;9.90;;;-3.20;99.90;;;;;;5004938;28;20050;-73
2022/12/14 00:54:26;;;;;;;21.50;12.17;;;-3.20;99.90;;;;;;5005027;28;20042;-75
2022/12/14 00:56:51;;;;;;;15.30;12.23;;;-3.20;99.90;;;;;;4989431;28;20053;-73
2022/12/14 00:59:17;;;;;;;18.33;12.53;;;-3.20;99.90;;;;;;5005556;28;20073;-74
2022/12/14 01:01:44;;;;;;;15.20;10.03;;;-3.30;99.90;;;;;;5004758;28;20041;-75
2022/12/14 01:04:21;;;;;;;18.90;9.60;;;-3.30;99.90;;;;;;5004717;28;20042;-76
2022/12/14 01:06:48;;;;;;;15.17;10.20;;;-3.30;99.90;;;;;;5004152;28;20050;-74
2022/12/14 01:09:14;;;;;;;26.23;13.27;;;-3.30;99.90;;;;;;5005242;28;20093;-75
2022/12/14 01:11:40;;;;;;;15.43;10.27;;;-3.30;99.90;;;;;;5004189;28;20042;-75
2022/12/14 01:14:06;;;;;;;20.10;11.77;;;-3.30;99.90;;;;;;5004128;28;20049;-75
2022/12/14 01:16:33;;;;;;;19.73;11.33;;;-3.30;99.90;;;;;;4987444;28;20057;-74
2022/12/14 01:19:00;;;;;;;20.87;14.67;;;-3.30;99.90;;;;;;5004371;28;20116;-74
2022/12/14 01:21:26;;;;;;;22.03;11.80;;;-3.30;99.90;;;;;;5003495;28;20129;-73
2022/12/14 01:23:55;;;;;;;18.53;11.57;;;-3.30;99.90;;;;;;5003341;28;20129;-75
2022/12/14 01:26:22;;;;;;;15.13;11.00;;;-3.30;99.90;;;;;;5003674;28;20046;-76
2022/12/14 01:28:54;;;;;;;15.63;11.77;;;-3.30;99.90;;;;;;5003481;28;20038;-75
2022/12/14 01:31:23;;;;;;;18.70;12.63;;;-3.40;99.90;;;;;;5004318;28;20046;-75
2022/12/14 01:33:49;;;;;;;14.37;10.90;;;-3.40;99.90;;;;;;5004147;28;20116;-77
2022/12/14 01:36:18;;;;;;;18.77;12.20;;;-3.40;99.90;;;;;;4987196;28;20476;-75
2022/12/14 01:38:44;;;;;;;17.80;11.83;;;-3.40;99.90;;;;;;5004885;28;20046;-75
2022/12/14 01:41:26;;;;;;;23.93;14.87;;;-3.40;99.90;;;;;;4985918;28;20033;-74
2022/12/14 01:43:59;;;;;;;19.27;12.10;;;-3.40;99.90;;;;;;5004617;28;20048;-74
2022/12/14 01:46:43;;;;;;;15.93;12.30;;;-3.50;99.90;;;;;;5003918;28;20068;-76
2022/12/14 01:49:24;;;;;;;13.83;10.47;;;-3.50;99.90;;;;;;5002220;28;20037;-74
2022/12/14 01:52:07;;;;;;;19.27;11.60;;;-3.50;99.90;;;;;;5004017;28;20042;-76
2022/12/14 01:54:39;;;;;;;21.10;10.90;;;-3.50;99.90;;;;;;5003824;28;20107;-76
2022/12/14 01:57:05;;;;;;;17.10;10.50;;;-3.60;99.90;;;;;;5003102;28;20064;-73
2022/12/14 01:59:35;;;;;;;23.63;13.93;;;-3.60;99.90;;;;;;5004410;28;20107;-75
2022/12/14 02:02:03;;;;;;;18.50;11.23;;;-3.60;99.90;;;;;;5001357;28;20523;-76
2022/12/14 02:04:29;;;;;;;16.53;11.90;;;-3.60;99.90;;;;;;5003917;28;20377;-75
2022/12/14 02:06:55;;;;;;;21.03;10.90;;;-3.60;99.90;;;;;;5003467;28;20050;-75
2022/12/14 02:09:26;;;;;;;24.03;11.10;;;-3.60;99.90;;;;;;5003662;28;20076;-74
2022/12/14 02:12:03;;;;;;;22.60;12.90;;;-3.60;99.90;;;;;;5002713;28;20053;-75
2022/12/14 02:14:29;;;;;;;16.67;9.27;;;-3.60;99.90;;;;;;5091657;22;20046;-74
2022/12/14 02:16:56;;;;;;;18.60;9.40;;;-3.60;99.90;;;;;;5023016;28;20045;-73
2022/12/14 02:19:23;;;;;;;15.00;11.23;;;-3.60;99.90;;;;;;5005848;28;20095;-73
2022/12/14 02:22:19;;;;;;;15.10;10.27;;;-3.60;99.90;;;;;;5023396;28;20073;-79
2022/12/14 02:24:56;;;;;;;23.77;9.93;;;-3.60;99.90;;;;;;5005677;28;20042;-73
2022/12/14 02:27:44;;;;;;;16.60;11.03;;;-3.60;99.90;;;;;;5004584;28;20057;-74
2022/12/14 02:30:23;;;;;;;27.23;12.50;;;-3.70;99.90;;;;;;5005434;28;20129;-73
2022/12/14 02:32:49;;;;;;;24.00;10.43;;;-3.70;99.90;;;;;;5022718;28;20050;-74
2022/12/14 02:36:08;;;;;;;20.33;10.13;;;-3.70;99.90;;;;;;5023414;28;20087;-73
2022/12/14 02:38:36;;;;;;;18.07;10.87;;;-3.70;99.90;;;;;;4923702;29;20111;-74
2022/12/14 02:41:13;;;;;;;14.63;9.67;;;-3.60;99.90;;;;;;4921749;29;20047;-75
2022/12/14 02:44:04;;;;;;;23.67;10.53;;;-3.60;99.90;;;;;;4978771;28;20126;-77
2022/12/14 02:46:49;;;;;;;11.03;9.97;;;-3.60;99.90;;;;;;5022897;28;20045;-75
2022/12/14 02:49:30;;;;;;;17.67;9.60;;;-3.60;99.90;;;;;;5023324;28;20430;-74
2022/12/14 02:52:11;;;;;;;17.00;11.80;;;-3.70;99.90;;;;;;5022940;28;20053;-75
2022/12/14 02:55:00;;;;;;;12.87;10.37;;;-3.70;99.90;;;;;;5022926;28;20045;-74
2022/12/14 02:57:37;;;;;;;22.57;10.30;;;-3.70;99.90;;;;;;5004188;28;20037;-73
2022/12/14 03:00:04;;;;;;;15.40;10.37;;;-3.80;99.90;;;;;;5022666;28;20056;-74
2022/12/14 03:02:34;;;;;;;23.53;10.13;;;-3.80;99.90;;;;;;5022377;28;20045;-73
2022/12/14 03:05:01;;;;;;;16.67;9.80;;;-3.80;99.90;;;;;;5022607;28;20049;-74
2022/12/14 03:07:32;;;;;;;18.83;10.67;;;-3.80;99.90;;;;;;5022782;28;20041;-75
2022/12/14 03:10:21;;;;;;;14.10;10.82;;;-3.80;99.90;;;;;;5004566;28;20049;-74
2022/12/14 03:13:15;;;;;;;18.07;12.33;;;-3.80;99.90;;;;;;4974313;28;20041;-75
2022/12/14 03:15:44;;;;;;;10.10;7.80;;;-3.80;99.90;;;;;;4984234;28;20132;-74
2022/12/14 03:18:16;;;;;;;18.73;10.13;;;-3.70;99.90;;;;;;5026745;28;20057;-74
2022/12/14 03:20:46;;;;;;;18.10;9.70;;;-3.80;99.90;;;;;;5026641;28;20071;-75
2022/12/14 03:23:16;;;;;;;20.70;10.77;;;-3.80;99.90;;;;;;5008673;28;20507;-74
2022/12/14 03:25:50;;;;;;;17.87;8.67;;;-3.80;99.90;;;;;;5025334;28;20053;-74
2022/12/14 03:28:21;;;;;;;21.23;11.77;;;-3.80;99.90;;;;;;4993061;28;20132;-73
2022/12/14 03:30:55;;;;;;;21.47;10.57;;;-3.80;99.90;;;;;;5026610;28;20045;-74
2022/12/14 03:33:24;;;;;;;23.00;10.97;;;-3.70;99.90;;;;;;5008353;28;20048;-73
2022/12/14 03:35:59;;;;;;;17.93;9.33;;;-3.70;99.90;;;;;;5025776;28;20533;-74
2022/12/14 03:38:34;;;;;;;23.33;13.00;;;-3.70;99.90;;;;;;5026619;28;20038;-74
2022/12/14 03:41:30;;;;;;;18.60;9.13;;;-3.70;99.90;;;;;;5025073;28;20095;-75
2022/12/14 03:44:21;;;;;;;12.80;9.17;;;-3.70;99.90;;;;;;5025715;28;20045;-73
2022/12/14 03:47:08;;;;;;;19.13;10.10;;;-3.70;99.90;;;;;;5009002;28;20045;-75
2022/12/14 03:49:48;;;;;;;12.87;9.13;;;-3.70;99.90;;;;;;5025806;28;20050;-73
2022/12/14 03:52:23;;;;;;;19.47;11.63;;;-3.80;99.90;;;;;;5026383;28;20080;-75
2022/12/14 03:54:57;;;;;;;19.90;11.10;;;-3.80;99.90;;;;;;5026061;28;20072;-77
2022/12/14 03:57:41;;;;;;;15.57;10.00;;;-3.80;99.90;;;;;;5025259;28;20463;-74
2022/12/14 04:00:10;;;;;;;16.40;9.93;;;-3.80;99.90;;;;;;5025923;28;20125;-73
2022/12/14 04:03:29;;;;;;;15.33;10.23;;;-3.80;99.90;;;;;;5025944;28;20061;-75
2022/12/14 04:06:02;;;;;;;17.67;13.03;;;-3.80;99.90;;;;;;4964755;28;20061;-75
2022/12/14 04:08:34;;;;;;;12.80;8.50;;;-3.80;99.90;;;;;;5007954;28;20121;-74
2022/12/14 04:20:07;;;;;;;14.00;9.67;;;-3.90;99.90;;;;;;5025476;28;20099;-74
2022/12/14 04:22:40;;;;;;;13.27;8.90;;;-3.90;99.90;;;;;;5008042;28;20617;-73
2022/12/14 04:29:55;;;;;;;14.80;9.93;;;-3.90;99.90;;;;;;5007118;28;19948;-74
2022/12/14 04:31:03;;;;;;;13.25;7.38;;;-3.90;99.90;;;;;;5024988;28;20488;-73
2022/12/14 04:33:46;;;;;;;15.60;9.77;;;-4.00;99.90;;;;;;5007318;28;20088;-77
2022/12/14 04:36:23;;;;;;;14.70;8.90;;;-4.00;99.90;;;;;;5024661;28;20076;-74
2022/12/14 04:39:15;;;;;;;15.03;9.73;;;-4.00;99.90;;;;;;5025390;28;20037;-78
2022/12/14 04:41:44;;;;;;;9.75;7.43;;;-4.00;99.90;;;;;;5010896;28;20060;-76
2022/12/14 04:44:31;;;;;;;15.23;7.57;;;-4.00;99.90;;;;;;5025128;28;20037;-77
2022/12/14 04:47:00;;;;;;;16.30;10.77;;;-4.00;99.90;;;;;;5024902;28;20037;-74
2022/12/14 04:49:38;;;;;;;15.77;9.47;;;-4.10;99.90;;;;;;5024880;28;20042;-76
2022/12/14 04:52:13;;;;;;;22.70;9.50;;;-4.10;99.90;;;;;;5024836;28;20419;-73
2022/12/14 04:54:57;;;;;;;11.30;9.67;;;-4.10;99.90;;;;;;5024721;28;20479;-74
2022/12/14 04:57:35;;;;;;;15.37;9.23;;;-4.10;99.90;;;;;;5024227;28;20060;-74
2022/12/14 05:00:01;;;;;;;18.60;10.63;;;-4.20;99.90;;;;;;5006899;28;20045;-75
2022/12/14 05:03:08;;;;;;;18.93;9.70;;;-4.20;99.90;;;;;;4990601;28;20043;-74
2022/12/14 05:05:51;;;;;;;12.20;8.60;;;-4.20;99.90;;;;;;5006576;28;20053;-73
2022/12/14 05:08:36;;;;;;;13.87;8.13;;;-4.20;99.90;;;;;;5006867;28;20524;-74
2022/12/14 05:11:18;;;;;;;12.73;8.83;;;-4.20;99.90;;;;;;5005741;28;20049;-76
2022/12/14 05:13:47;;;;;;;14.23;11.35;;;-4.20;99.90;;;;;;5025020;28;20056;-76
2022/12/14 05:16:18;;;;;;;17.97;9.10;;;-4.20;99.90;;;;;;5024453;28;20080;-76
2022/12/14 05:18:44;;;;;;;19.10;11.97;;;-4.20;99.90;;;;;;5025004;28;20048;-74
2022/12/14 05:23:54;;;;;;;11.90;9.83;;;-4.30;99.90;;;;;;5024243;28;20052;-74
2022/12/14 05:26:20;;;;;;;21.47;12.03;;;-4.30;99.90;;;;;;5005525;28;20451;-75
2022/12/14 05:28:45;;;;;;;18.50;8.93;;;-4.30;99.90;;;;;;5024576;28;20041;-75
2022/12/14 05:31:11;;;;;;;12.37;9.43;;;-4.30;99.90;;;;;;5024241;28;20046;-76
2022/12/14 05:33:37;;;;;;;12.40;9.17;;;-4.30;99.90;;;;;;5024447;28;20103;-75
2022/12/14 05:36:02;;;;;;;16.23;8.47;;;-4.30;99.90;;;;;;5022653;28;20138;-74
2022/12/14 05:38:28;;;;;;;16.33;12.47;;;-4.30;99.90;;;;;;5023929;28;20404;-76
2022/12/14 05:40:54;;;;;;;14.70;10.50;;;-4.30;99.90;;;;;;5022932;28;20082;-74
2022/12/14 05:43:19;;;;;;;18.07;8.77;;;-4.40;99.90;;;;;;5024220;28;20488;-75
2022/12/14 05:45:45;;;;;;;17.90;9.90;;;-4.40;99.90;;;;;;5024258;28;20045;-74
2022/12/14 05:48:10;;;;;;;14.40;8.57;;;-4.40;99.90;;;;;;5023657;28;20167;-74
2022/12/14 05:50:36;;;;;;;14.33;7.73;;;-4.40;99.90;;;;;;5023555;28;20056;-75
2022/12/14 05:53:01;;;;;;;13.73;9.07;;;-4.40;99.90;;;;;;5023649;28;20450;-76
2022/12/14 05:55:27;;;;;;;14.83;9.23;;;-4.40;99.90;;;;;;5005124;28;20095;-75
2022/12/14 05:57:53;;;;;;;20.20;10.13;;;-4.40;99.90;;;;;;5023419;28;20052;-76
2022/12/14 06:00:18;;;;;;;22.43;12.77;;;-4.40;99.90;;;;;;5023596;28;20068;-78
2022/12/14 06:02:44;;;;;;;11.53;8.43;;;-4.40;99.90;;;;;;5010539;28;20434;-74
2022/12/14 06:05:09;;;;;;;20.77;9.27;;;-4.40;99.90;;;;;;5003367;28;20056;-74
2022/12/14 06:07:35;;;;;;;22.90;12.27;;;-4.40;99.90;;;;;;5005624;28;20546;-74
2022/12/14 06:10:01;;;;;;;17.57;10.43;;;-4.40;99.90;;;;;;5020966;28;20053;-75
2022/12/14 06:12:26;;;;;;;17.50;11.23;;;-4.30;99.90;;;;;;5019882;28;20613;-74
2022/12/14 06:14:52;;;;;;;17.90;11.43;;;-4.40;99.90;;;;;;5004426;28;20068;-75
2022/12/14 06:17:17;;;;;;;15.27;10.47;;;-4.30;99.90;;;;;;5005728;28;20092;-76
2022/12/14 06:19:43;;;;;;;13.60;9.40;;;-4.30;99.90;;;;;;5030895;28;20049;-77
2022/12/14 06:22:08;;;;;;;14.73;9.00;;;-4.30;99.90;;;;;;5034100;28;20045;-78
2022/12/14 06:24:34;;;;;;;16.77;9.93;;;-4.30;99.90;;;;;;5022744;28;20138;-78
2022/12/14 06:26:59;;;;;;;15.57;10.70;;;-4.30;99.90;;;;;;4987413;28;20685;-78
2022/12/14 06:29:25;;;;;;;13.47;10.13;;;-4.30;99.90;;;;;;5022182;28;20116;-77
2022/12/14 06:31:50;;;;;;;17.13;8.67;;;-4.30;99.90;;;;;;5022261;28;20487;-76
2022/12/14 06:34:17;;;;;;;11.90;9.03;;;-4.30;99.90;;;;;;5022331;28;20045;-77
2022/12/14 06:36:45;;;;;;;19.20;12.27;;;-4.40;99.90;;;;;;5020833;28;20048;-76
2022/12/14 06:39:13;;;;;;;12.07;10.00;;;-4.40;99.90;;;;;;5021573;28;20407;-77
2022/12/14 06:41:40;;;;;;;15.53;9.77;;;-4.40;99.90;;;;;;5022333;28;20041;-78
2022/12/14 06:44:09;;;;;;;21.03;11.40;;;-4.40;99.90;;;;;;5023148;28;20080;-78
2022/12/14 06:46:35;;;;;;;13.23;9.83;;;-4.40;99.90;;;;;;5011908;28;20045;-77
2022/12/14 06:49:02;;;;;;;15.03;9.77;;;-4.40;99.90;;;;;;4988440;28;20091;-77
2022/12/14 06:51:27;;;;;;;19.87;9.03;;;-4.40;99.90;;;;;;5021502;28;20068;-77
2022/12/14 06:53:55;;;;;;;15.03;9.20;;;-4.50;99.90;;;;;;5022030;28;20046;-77
2022/12/14 06:56:22;;;;;;;10.30;7.87;;;-4.50;99.90;;;;;;5021637;28;20048;-77
2022/12/14 06:58:48;;;;;;;14.63;8.57;;;-4.50;99.90;;;;;;4988437;28;20049;-79
2022/12/14 07:01:19;;;;;;;16.50;9.50;;;-4.50;99.90;;;;;;5003340;28;20250;-78
2022/12/14 07:03:52;;;;;;;18.87;10.93;;;-4.50;99.90;;;;;;5005427;28;20041;-77
2022/12/14 07:06:18;;;;;;;;;;;-4.50;99.90;;;;;;5030025;28;20081;-77
2022/12/14 07:08:44;;;;;;;16.60;11.90;;;-4.60;99.90;;;;;;5008174;28;19928;-78
2022/12/14 07:11:12;;;;;;;12.13;9.00;;;-4.60;99.90;;;;;;4987518;28;20033;-77
2022/12/14 07:13:38;;;;;;;15.90;9.73;;;-4.60;99.90;;;;;;5022932;28;20120;-80
2022/12/14 07:16:05;;;;;;;17.77;10.97;;;-4.60;99.90;;;;;;5007947;28;20053;-80
2022/12/14 07:18:32;;;;;;;24.27;11.13;;;-4.60;99.90;;;;;;5020572;28;20046;-80
2022/12/14 07:20:59;;;;;;;12.47;9.97;;;-4.60;99.90;;;;;;5020945;28;20056;-80
2022/12/14 07:23:26;;;;;;;21.47;10.37;;;-4.60;99.90;;;;;;5021657;28;20056;-81
2022/12/14 07:25:52;;;;;;;12.37;8.97;;;-4.60;99.90;;;;;;5019828;28;20080;-81
2022/12/14 07:28:19;;;;;;;19.47;10.43;;;-4.50;99.90;;;;;;5017478;28;20063;-80
2022/12/14 07:30:45;;;;;;;11.97;7.70;;;-4.50;99.90;;;;;;5024132;28;20045;-81
2022/12/14 07:33:11;;;;;;;11.60;8.60;;;-4.50;99.90;;;;;;5006255;28;20056;-81
2022/12/14 07:35:36;;;;;;;18.13;8.60;;;-4.50;99.90;;;;;;5041149;28;20495;-81
2022/12/14 07:38:02;;;;;;;19.57;10.43;;;-4.50;99.90;;;;;;5040243;28;20495;-81
2022/12/14 07:40:28;;;;;;;14.03;10.93;;;-4.50;99.90;;;;;;5021982;28;20055;-81
2022/12/14 07:42:54;;;;;;;15.87;9.10;;;-4.60;99.90;;;;;;5022741;28;20083;-81
2022/12/14 07:45:20;;;;;;;13.93;10.43;;;-4.60;99.90;;;;;;5006345;28;20041;-81
2022/12/14 07:47:45;;;;;;;15.53;9.47;;;-4.60;99.90;;;;;;5023737;28;20060;-81
2022/12/14 07:50:11;;;;;;;9.27;7.50;;;-4.60;99.90;;;;;;5040497;28;20119;-81
2022/12/14 07:52:36;;;;;;;18.70;9.00;;;-4.60;99.90;;;;;;5023325;28;20049;-81
2022/12/14 07:55:02;;;;;;;19.13;10.67;;;-4.60;99.90;;;;;;5039848;28;20498;-81
2022/12/14 07:57:28;;;;;;;20.30;10.00;;;-4.50;99.90;;;;;;5022693;28;20132;-81
2022/12/14 07:59:54;;;;;;;19.53;10.20;;;-4.50;99.90;;;;;;5041333;28;20048;-81
2022/12/14 08:02:19;;;;;;;17.57;9.33;;;-4.50;99.90;;;;;;5044498;28;20482;-81
2022/12/14 08:04:45;;;;;;;14.27;9.30;;;-4.50;99.90;;;;;;5010507;28;20040;-81
2022/12/14 08:07:10;;;;;;;18.23;10.10;;;-4.50;99.90;;;;;;5026350;28;20538;-81
2022/12/14 08:09:36;;;;;;;17.37;12.10;;;-4.50;99.90;;;;;;5024575;28;20106;-80
2022/12/14 08:12:02;;;;;;;12.97;10.63;;;-4.50;99.90;;;;;;5044062;28;20037;-81
2022/12/14 08:14:27;;;;;;;12.33;9.17;;;-4.50;99.90;;;;;;5025652;28;20049;-81
2022/12/14 08:16:53;;;;;;;16.47;9.00;;;-4.50;99.90;;;;;;5025838;28;20040;-81
2022/12/14 08:19:19;;;;;;;15.37;9.77;;;-4.50;99.90;;;;;;5026321;28;20367;-81
2022/12/14 08:21:45;;;;;;;18.73;11.40;;;-4.40;99.90;;;;;;5010130;28;20045;-81
2022/12/14 08:24:12;;;;;;;12.50;10.23;;;-4.40;99.90;;;;;;5043494;28;20394;-81
2022/12/14 08:26:38;;;;;;;21.70;9.03;;;-4.40;99.90;;;;;;5034136;28;20124;-81
2022/12/14 08:29:05;;;;;;;17.10;12.50;;;-4.40;99.90;;;;;;5005624;28;20565;-81
2022/12/14 08:31:31;;;;;;;14.10;12.50;;;-4.40;99.90;;;;;;5023908;28;20037;-81
2022/12/14 08:33:58;;;;;;;19.77;12.23;;;-4.40;99.90;;;;;;5005494;28;20042;-81
2022/12/14 08:36:31;;;;;;;10.07;8.03;;;-4.40;99.90;;;;;;5023835;28;20051;-81
2022/12/14 08:39:02;;;;;;;15.80;11.23;;;-4.30;99.90;;;;;;5005536;28;20519;-81
2022/12/14 08:41:29;;;;;;;17.60;10.57;;;-4.30;99.90;;;;;;5005517;28;20049;-81
2022/12/14 08:43:57;;;;;;;23.00;13.37;;;-4.40;99.90;;;;;;5023222;28;20048;-81
2022/12/14 08:46:25;;;;;;;14.47;8.60;;;-4.30;99.90;;;;;;5023642;28;20049;-81
2022/12/14 08:48:52;;;;;;;13.73;10.30;;;-4.30;99.90;;;;;;5023344;28;20712;-81
2022/12/14 08:51:18;;;;;;;19.53;10.33;;;-4.30;99.90;;;;;;5006752;28;20550;-80
2022/12/14 08:53:46;;;;;;;21.70;8.53;;;-4.30;99.90;;;;;;5024148;28;20081;-80
2022/12/14 08:56:18;;;;;;;16.77;10.30;;;-4.30;99.90;;;;;;5022224;28;20124;-81
2022/12/14 08:58:45;;;;;;;14.93;9.13;;;-4.20;99.90;;;;;;5023954;28;20049;-81
2022/12/14 09:01:22;;;;;;;18.87;10.63;;;-4.20;99.90;;;;;;5023397;28;20334;-81
2022/12/14 09:03:48;;;;;;;12.10;8.40;;;-4.20;99.90;;;;;;5023958;28;20049;-81
2022/12/14 09:06:22;;;;;;;15.57;11.13;;;-4.20;99.90;;;;;;5023613;28;20080;-80
2022/12/14 09:08:48;;;;;;;12.70;10.50;;;-4.20;99.90;;;;;;5006216;28;20396;-81
2022/12/14 09:11:15;;;;;;;20.20;11.47;;;-4.10;99.90;;;;;;5022188;28;20488;-81
2022/12/14 09:13:42;;;;;;;20.87;11.63;;;-4.10;99.90;;;;;;5023363;28;20041;-81
2022/12/14 09:16:13;;;;;;;13.30;9.67;;;-4.00;99.90;;;;;;5023014;28;20253;-81
2022/12/14 09:18:39;;;;;;;14.07;9.27;;;-4.00;99.90;;;;;;5005243;28;20085;-81
2022/12/14 09:21:05;;;;;;;22.93;11.43;;;-3.90;99.90;;;;;;5005291;28;20083;-81
2022/12/14 09:23:32;;;;;;;21.80;12.67;;;-3.90;99.90;;;;;;5022877;28;20072;-81
2022/12/14 09:26:07;;;;;;;17.63;9.40;;;-3.90;99.90;;;;;;5021815;28;20483;-81
2022/12/14 09:28:35;;;;;;;19.00;11.53;;;-3.90;99.90;;;;;;5022833;28;20033;-81
2022/12/14 09:31:04;;;;;;;15.53;8.77;;;-3.90;99.90;;;;;;5023276;28;20065;-80
2022/12/14 09:33:31;;;;;;;20.07;11.80;;;-3.80;99.90;;;;;;5022743;28;20039;-80
2022/12/14 09:36:04;;;;;;;12.03;9.07;;;-3.80;99.90;;;;;;5022596;28;20146;-80
2022/12/14 09:38:32;;;;;;;28.50;13.07;;;-3.70;99.90;;;;;;5022797;28;20035;-80
2022/12/14 09:41:04;;;;;;;14.07;9.43;;;-3.70;99.90;;;;;;5004005;28;20119;-80
2022/12/14 09:43:39;;;;;;;16.33;11.38;;;-3.70;99.90;;;;;;5005291;28;20041;-80
2022/12/14 09:46:20;;;;;;;18.13;13.10;;;-3.60;99.90;;;;;;4988215;28;20188;-81
2022/12/14 09:48:47;;;;;;;11.67;8.30;;;-3.60;99.90;;;;;;5023220;28;20273;-81
2022/12/14 09:51:15;;;;;;;16.77;9.93;;;-3.50;99.90;;;;;;5004667;28;20045;-81
2022/12/14 09:53:42;;;;;;;15.13;10.93;;;-3.50;99.90;;;;;;5022360;28;20058;-81
2022/12/14 09:56:21;;;;;;;22.33;11.07;;;-3.50;99.90;;;;;;5021093;28;21016;-81
2022/12/14 09:58:56;;;;;;;10.63;9.20;;;-3.40;99.90;;;;;;5022496;28;20055;-81
2022/12/14 10:01:21;;;;;;;19.43;10.67;;;-3.40;99.90;;;;;;5022405;28;20045;-81
2022/12/14 10:04:06;;;;;;;20.90;8.73;;;-3.30;99.90;;;;;;5022970;28;20041;-81
2022/12/14 10:06:54;;;;;;;15.83;10.30;;;-3.30;99.90;;;;;;5022296;28;20369;-81
2022/12/14 10:09:35;;;;;;;10.83;8.87;;;-3.30;99.90;;;;;;5003521;28;20050;-82
2022/12/14 10:12:32;;;;;;;15.40;10.37;;;-3.30;99.90;;;;;;5021558;28;20041;-81
2022/12/14 10:15:11;;;;;;;15.87;8.63;;;-3.20;99.90;;;;;;5021300;28;20357;-81
2022/12/14 10:17:59;;;;;;;14.57;9.67;;;-3.20;99.90;;;;;;5003367;28;20132;-82
2022/12/14 10:20:50;;;;;;;24.07;9.20;;;-3.10;99.90;;;;;;4988497;28;20041;-81
2022/12/14 10:23:20;;;;;;;11.73;7.20;;;-3.10;99.90;;;;;;5021466;28;20120;-81
2022/12/14 10:25:50;;;;;;;14.67;10.47;;;-3.10;99.90;;;;;;5021152;28;20081;-81
2022/12/14 10:28:37;;;;;;;23.33;12.30;;;-3.00;99.90;;;;;;5022093;28;20037;-82
2022/12/14 10:31:06;;;;;;;13.13;10.80;;;-3.00;99.90;;;;;;5003905;28;20532;-81
2022/12/14 10:33:32;;;;;;;19.80;11.03;;;-3.00;99.90;;;;;;5022042;28;20588;-82
2022/12/14 10:35:57;;;;;;;18.47;13.37;;;-3.00;99.90;;;;;;5021766;28;20137;-82
2022/12/14 10:38:26;;;;;;;13.70;10.03;;;-2.90;99.90;;;;;;5021521;28;20408;-82
2022/12/14 10:41:27;;;;;;;8.17;6.60;;;-2.90;99.90;;;;;;5020341;28;20052;-82
2022/12/14 10:44:36;;;;;;;14.27;8.23;;;-2.90;99.90;;;;;;5014452;28;20045;-82
2022/12/14 10:47:32;;;;;;;22.00;9.20;;;-2.90;99.90;;;;;;5004057;28;20056;-82
2022/12/14 10:50:12;;;;;;;18.60;7.43;;;-2.90;99.90;;;;;;5010661;28;20084;-82
2022/12/14 10:52:41;;;;;;;13.90;9.37;;;-2.90;99.90;;;;;;5004039;28;20049;-82
2022/12/14 10:55:19;;;;;;;16.50;8.40;;;-2.80;99.90;;;;;;5020395;28;20041;-81
2022/12/14 10:57:44;;;;;;;15.90;9.60;;;-2.90;99.90;;;;;;5021585;28;20053;-81
2022/12/14 11:00:13;;;;;;;22.00;13.30;;;-2.80;99.90;;;;;;4987332;28;20516;-81
2022/12/14 11:02:53;;;;;;;12.10;8.10;;;-2.70;99.90;;;;;;5021406;28;20533;-81
2022/12/14 11:05:34;;;;;;;20.60;9.07;;;-2.70;99.90;;;;;;5020909;28;20141;-81
2022/12/14 11:08:00;;;;;;;21.93;9.17;;;-2.70;99.90;;;;;;5020391;28;20087;-81
2022/12/14 11:10:38;;;;;;;13.47;8.70;;;-2.70;99.90;;;;;;5002445;28;20488;-81
2022/12/14 11:13:17;;;;;;;16.60;9.37;;;-2.70;99.90;;;;;;4987745;28;20038;-82
2022/12/14 11:15:48;;;;;;;13.00;7.37;;;-2.60;99.90;;;;;;5020959;28;20053;-81
2022/12/14 11:18:14;;;;;;;12.97;8.70;;;-2.60;99.90;;;;;;5021596;28;20175;-81
2022/12/14 11:20:52;;;;;;;15.80;7.80;;;-2.60;99.90;;;;;;5021197;28;20120;-81
2022/12/14 11:23:21;;;;;;;13.73;6.83;;;-2.50;99.90;;;;;;5021348;28;20120;-80
2022/12/14 11:25:54;;;;;;;14.00;6.57;;;-2.50;99.90;;;;;;5002742;28;20123;-81
2022/12/14 11:28:32;;;;;;;8.63;7.27;;;-2.50;99.90;;;;;;5020944;28;20255;-81
2022/12/14 11:31:09;;;;;;;19.50;7.63;;;-2.50;99.90;;;;;;5003435;28;20045;-81
2022/12/14 11:33:47;;;;;;;14.13;7.17;;;-2.40;99.90;;;;;;4988192;28;20138;-81
2022/12/14 11:36:29;;;;;;;19.20;13.43;;;-2.40;99.90;;;;;;5025126;28;20091;-81
2022/12/14 11:39:00;;;;;;;14.25;6.53;;;-2.40;99.90;;;;;;5024863;28;20526;-81
2022/12/14 11:41:35;;;;;;;8.33;6.23;;;-2.40;99.90;;;;;;5024730;28;20048;-81
2022/12/14 11:44:21;;;;;;;9.60;6.17;;;-2.40;99.90;;;;;;5024831;28;20052;-81
2022/12/14 11:46:59;;;;;;;7.93;6.67;;;-2.30;99.90;;;;;;5019245;28;20045;-81
2022/12/14 11:49:33;;;;;;;8.03;7.23;;;-2.30;99.90;;;;;;5022395;28;20056;-82
2022/12/14 11:52:08;;;;;;;10.20;6.30;;;-2.30;99.90;;;;;;5029718;28;20096;-81
2022/12/14 11:54:36;;;;;;;11.43;6.70;;;-2.30;99.90;;;;;;4995424;28;20073;-81
2022/12/14 11:57:12;;;;;;;10.77;6.10;;;-2.20;99.90;;;;;;4994616;28;20038;-81
2022/12/14 11:59:40;;;;;;;17.33;6.93;;;-2.20;99.90;;;;;;5006956;28;20045;-81
2022/12/14 12:02:28;;;;;;;14.87;8.03;;;-2.20;99.90;;;;;;5024321;28;20037;-80
2022/12/14 12:05:17;;;;;;;11.07;7.53;;;-2.10;99.90;;;;;;5023895;28;20572;-81
2022/12/14 12:07:52;;;;;;;10.30;6.50;;;-2.10;99.90;;;;;;5025343;28;20321;-81
2022/12/14 12:10:19;;;;;;;14.17;6.97;;;-2.10;99.90;;;;;;5024242;28;20608;-81
2022/12/14 12:12:51;;;;;;;14.03;8.57;;;-2.10;99.90;;;;;;5007140;28;20050;-81
2022/12/14 12:15:21;;;;;;;15.45;9.00;;;-2.00;99.90;;;;;;5007086;28;20054;-80
2022/12/14 12:17:57;;;;;;;11.97;6.57;;;-2.00;99.90;;;;;;5008024;28;20046;-81
2022/12/14 12:20:36;;;;;;;17.80;7.53;;;-2.00;99.90;;;;;;5018386;28;20499;-81
2022/12/14 12:23:36;;;;;;;13.40;7.37;;;-2.00;99.90;;;;;;5019549;28;20037;-81
2022/12/14 12:26:21;;;;;;;11.27;6.20;;;-2.00;99.90;;;;;;5006137;28;20042;-81
2022/12/14 12:29:06;;;;;;;15.97;8.80;;;-2.00;99.90;;;;;;5023689;28;20041;-81
2022/12/14 12:31:42;;;;;;;16.73;6.73;;;-2.00;99.90;;;;;;5023211;28;20044;-81
2022/12/14 12:34:19;;;;;;;9.40;6.13;;;-2.00;99.90;;;;;;5023870;28;20052;-81
2022/12/14 12:36:47;;;;;;;15.53;9.80;;;-2.00;99.90;;;;;;5006582;28;20127;-80
2022/12/14 12:39:19;;;;;;;8.80;6.03;;;-2.00;99.90;;;;;;4988643;28;20049;-81
2022/12/14 12:42:24;;;;;;;8.45;5.82;;;-2.00;99.90;;;;;;5007146;28;20049;-81
2022/12/14 12:44:59;;;;;;;10.13;7.77;;;-1.90;99.90;;;;;;5012612;28;20348;-81
2022/12/14 12:47:36;;;;;;;9.33;6.20;;;-1.90;99.90;;;;;;5023824;28;20037;-81
2022/12/14 12:50:28;;;;;;;9.53;6.93;;;-1.90;99.90;;;;;;5023794;28;20037;-81
2022/12/14 12:53:04;;;;;;;9.20;6.30;;;-1.90;99.90;;;;;;5005700;28;20506;-81
2022/12/14 12:56:03;;;;;;;8.90;5.73;;;-1.90;99.90;;;;;;5005575;28;20677;-81
2022/12/14 12:58:31;;;;;;;12.07;6.20;;;-1.90;99.90;;;;;;5023763;28;20487;-81
2022/12/14 13:01:01;;;;;;;12.73;6.57;;;-1.90;99.90;;;;;;5023384;28;20123;-81
2022/12/14 13:03:38;;;;;;;7.77;5.10;;;-1.90;99.90;;;;;;5023840;28;20041;-81
2022/12/14 13:06:30;;;;;;;5.30;4.80;;;-1.80;99.90;;;;;;5010469;28;20052;-81
2022/12/14 13:09:16;;;;;;;6.68;5.90;;;-1.80;99.90;;;;;;5014938;28;20046;-81
2022/12/14 13:11:42;;;;;;;7.07;4.97;;;-1.80;99.90;;;;;;5008903;28;20128;-81
2022/12/14 13:14:38;;;;;;;15.10;7.43;;;-1.80;99.90;;;;;;5024072;28;20084;-81